Time;durP1;ratioP1;P1;durP2;ratioP2;P2;SDS_P1;SDS_P2;PMS_P1;PMS_P2;Temp;Humidity;BMP_temperature;BMP_pressure;BME280_temperature;BME280_humidity;BME280_pressure;Samples;Min_cycle;Max_cycle;Signal;HPM_P1;HPM_P2
2022/03/02 00:02:05;;;;;;;15.77;5.65;;;;;;;;;;4958924;29;20518;-84
2022/03/02 00:04:35;;;;;;;14.00;5.80;;;;;;;;;;4974408;28;20463;-85
2022/03/02 00:07:05;;;;;;;15.75;6.13;;;;;;;;;;4944994;29;20059;-84
2022/03/02 00:09:35;;;;;;;14.68;5.88;;;;;;;;;;4942005;29;20503;-83
2022/03/02 00:12:04;;;;;;;15.05;5.90;;;;;;;;;;4955309;28;20103;-83
2022/03/02 00:14:33;;;;;;;12.48;5.07;;;;;;;;;;4972861;28;20051;-84
2022/03/02 00:17:01;;;;;;;11.50;5.68;;;;;;;;;;4960784;29;20099;-84
2022/03/02 00:19:30;;;;;;;14.23;5.85;;;;;;;;;;4959358;28;20043;-83
2022/03/02 00:21:58;;;;;;;11.05;5.60;;;;;;;;;;4955394;29;20060;-84
2022/03/02 00:24:29;;;;;;;15.10;5.35;;;;;;;;;;4938422;29;20075;-83
2022/03/02 00:26:58;;;;;;;12.32;5.57;;;;;;;;;;4934393;29;20127;-84
2022/03/02 00:29:27;;;;;;;12.05;5.25;;;;;;;;;;4954715;29;20546;-84
2022/03/02 00:31:55;;;;;;;19.48;6.10;;;;;;;;;;4956113;29;20082;-84
2022/03/02 00:34:23;;;;;;;12.32;5.53;;;;;;;;;;4933563;29;20135;-84
2022/03/02 00:36:52;;;;;;;13.10;6.13;;;;;;;;;;4919678;29;20134;-84
2022/03/02 00:39:20;;;;;;;11.70;5.10;;;;;;;;;;4925780;29;20122;-84
2022/03/02 00:41:48;;;;;;;12.07;5.63;;;;;;;;;;4929652;29;20134;-84
2022/03/02 00:44:18;;;;;;;23.25;5.95;;;;;;;;;;4938440;29;20079;-84
2022/03/02 00:46:47;;;;;;;9.15;4.80;;;;;;;;;;4938421;29;20338;-84
2022/03/02 00:49:15;;;;;;;14.98;6.10;;;;;;;;;;4953478;29;20340;-84
2022/03/02 00:51:44;;;;;;;12.65;5.85;;;;;;;;;;4946175;29;20139;-85
2022/03/02 00:54:12;;;;;;;12.77;5.03;;;;;;;;;;4950566;29;20085;-84
2022/03/02 00:56:41;;;;;;;11.98;5.18;;;;;;;;;;4937209;29;20080;-84
2022/03/02 00:59:10;;;;;;;11.73;5.38;;;;;;;;;;4929574;29;20047;-84
2022/03/02 01:01:40;;;;;;;10.38;5.35;;;;;;;;;;4950674;29;20129;-84
2022/03/02 01:04:08;;;;;;;17.55;5.13;;;;;;;;;;4924925;29;20441;-84
2022/03/02 01:06:37;;;;;;;11.93;5.20;;;;;;;;;;4918454;29;20052;-84
2022/03/02 01:09:05;;;;;;;11.82;5.40;;;;;;;;;;4917799;29;20080;-84
2022/03/02 01:11:34;;;;;;;16.52;5.63;;;;;;;;;;4941492;29;20051;-84
2022/03/02 01:14:02;;;;;;;10.38;5.68;;;;;;;;;;4942727;29;20083;-85
2022/03/02 01:16:31;;;;;;;12.15;5.78;;;;;;;;;;4947341;29;20085;-84
2022/03/02 01:19:00;;;;;;;10.70;5.53;;;;;;;;;;4956042;28;20055;-83
2022/03/02 01:21:29;;;;;;;9.95;5.57;;;;;;;;;;4952504;29;20134;-84
2022/03/02 01:23:59;;;;;;;12.40;5.03;;;;;;;;;;4963324;29;20150;-83
2022/03/02 01:26:28;;;;;;;13.30;5.75;;;;;;;;;;4953672;29;20048;-84
2022/03/02 01:28:57;;;;;;;15.35;5.60;;;;;;;;;;4944567;29;20047;-84
2022/03/02 01:31:26;;;;;;;13.70;6.45;;;;;;;;;;4947510;29;20074;-84
2022/03/02 01:33:56;;;;;;;11.32;5.28;;;;;;;;;;4958908;29;20143;-83
2022/03/02 01:36:26;;;;;;;11.90;5.10;;;;;;;;;;4963067;29;20059;-84
2022/03/02 01:38:54;;;;;;;12.43;5.28;;;;;;;;;;4959011;29;20090;-84
2022/03/02 01:41:24;;;;;;;11.82;5.82;;;;;;;;;;4935267;29;20083;-84
2022/03/02 01:43:53;;;;;;;11.05;5.32;;;;;;;;;;4935580;29;20039;-84
2022/03/02 01:46:25;;;;;;;12.52;5.85;;;;;;;;;;4950539;29;20063;-84
2022/03/02 01:48:54;;;;;;;9.23;5.32;;;;;;;;;;4935364;29;20123;-83
2022/03/02 01:51:23;;;;;;;10.20;5.38;;;;;;;;;;4953300;29;20051;-83
2022/03/02 01:53:52;;;;;;;12.77;5.97;;;;;;;;;;4955013;29;20078;-82
2022/03/02 01:56:21;;;;;;;16.13;6.40;;;;;;;;;;4938665;29;20138;-83
2022/03/02 01:58:49;;;;;;;12.82;5.57;;;;;;;;;;4935790;29;20130;-84
2022/03/02 02:01:18;;;;;;;12.70;6.10;;;;;;;;;;4946503;29;20154;-82
2022/03/02 02:03:47;;;;;;;10.95;5.10;;;;;;;;;;4950435;29;20130;-83
2022/03/02 02:06:15;;;;;;;12.20;6.07;;;;;;;;;;4917680;29;20094;-83
2022/03/02 02:08:44;;;;;;;13.73;5.15;;;;;;;;;;4927803;29;20133;-83
2022/03/02 02:11:14;;;;;;;16.20;6.22;;;;;;;;;;4954815;29;20074;-83
2022/03/02 02:13:43;;;;;;;13.52;5.82;;;;;;;;;;4949014;29;20075;-83
2022/03/02 02:16:12;;;;;;;10.88;5.45;;;;;;;;;;4936007;29;20055;-83
2022/03/02 02:18:41;;;;;;;8.20;4.57;;;;;;;;;;4938977;29;20079;-83
2022/03/02 02:21:11;;;;;;;15.15;5.95;;;;;;;;;;4944080;28;20059;-84
2022/03/02 02:23:40;;;;;;;10.38;5.22;;;;;;;;;;4922929;29;20436;-84
2022/03/02 02:26:09;;;;;;;19.05;5.82;;;;;;;;;;4946146;29;20086;-84
2022/03/02 02:28:37;;;;;;;12.55;5.55;;;;;;;;;;4920547;29;20052;-83
2022/03/02 02:31:06;;;;;;;10.00;5.25;;;;;;;;;;4935049;29;20500;-83
2022/03/02 02:33:34;;;;;;;9.93;5.72;;;;;;;;;;4940358;29;20100;-84
2022/03/02 02:36:06;;;;;;;15.27;5.45;;;;;;;;;;4934616;29;20052;-84
2022/03/02 02:38:36;;;;;;;17.15;5.95;;;;;;;;;;4933152;29;20054;-84
2022/03/02 02:41:07;;;;;;;15.23;5.85;;;;;;;;;;4948874;29;20094;-83
2022/03/02 02:43:37;;;;;;;12.70;5.78;;;;;;;;;;4935571;29;20139;-83
2022/03/02 02:46:06;;;;;;;13.93;5.63;;;;;;;;;;4938379;29;20119;-83
2022/03/02 02:48:34;;;;;;;11.13;5.90;;;;;;;;;;4953991;29;20043;-83
2022/03/02 02:51:05;;;;;;;11.32;5.95;;;;;;;;;;4958480;29;20183;-83
2022/03/02 02:53:35;;;;;;;19.92;6.63;;;;;;;;;;4944222;29;20051;-83
2022/03/02 02:56:06;;;;;;;13.50;5.00;;;;;;;;;;4938634;29;20103;-84
2022/03/02 02:58:35;;;;;;;15.18;6.68;;;;;;;;;;4953595;29;20078;-84
2022/03/02 03:01:06;;;;;;;13.02;6.13;;;;;;;;;;4947515;29;20107;-82
2022/03/02 03:03:37;;;;;;;14.38;6.03;;;;;;;;;;4959554;29;20051;-82
2022/03/02 03:06:05;;;;;;;11.75;6.00;;;;;;;;;;4955332;29;20075;-83
2022/03/02 03:08:34;;;;;;;15.63;6.15;;;;;;;;;;4937857;29;20083;-83
2022/03/02 03:11:11;;;;;;;13.45;5.35;;;;;;;;;;4941673;29;20122;-84
2022/03/02 03:13:39;;;;;;;14.55;5.82;;;;;;;;;;4939496;29;20082;-82
2022/03/02 03:16:08;;;;;;;13.07;5.72;;;;;;;;;;4938247;29;20055;-82
2022/03/02 03:18:37;;;;;;;14.82;5.85;;;;;;;;;;4938340;29;20098;-83
2022/03/02 03:21:05;;;;;;;11.52;4.97;;;;;;;;;;4928919;29;20067;-83
2022/03/02 03:23:34;;;;;;;14.98;5.78;;;;;;;;;;4939763;29;20048;-83
2022/03/02 03:26:06;;;;;;;7.90;4.63;;;;;;;;;;4939601;29;20075;-83
2022/03/02 03:28:35;;;;;;;11.82;5.90;;;;;;;;;;4921059;29;20056;-83
2022/03/02 03:31:06;;;;;;;9.38;5.35;;;;;;;;;;4965333;28;20126;-83
2022/03/02 03:33:35;;;;;;;14.57;5.60;;;;;;;;;;4959631;29;20556;-83
2022/03/02 03:36:06;;;;;;;11.70;6.03;;;;;;;;;;4940237;29;20127;-84
2022/03/02 03:38:35;;;;;;;14.82;6.00;;;;;;;;;;4942853;29;20075;-84
2022/03/02 03:41:07;;;;;;;11.60;5.38;;;;;;;;;;4943263;29;20083;-84
2022/03/02 03:43:35;;;;;;;9.90;5.25;;;;;;;;;;4942853;29;20273;-82
2022/03/02 03:46:08;;;;;;;10.73;5.55;;;;;;;;;;4941795;29;20048;-83
2022/03/02 03:48:36;;;;;;;12.35;5.65;;;;;;;;;;4943492;29;20087;-83
2022/03/02 03:51:06;;;;;;;16.05;6.25;;;;;;;;;;4945838;28;20139;-83
2022/03/02 03:53:35;;;;;;;12.15;5.55;;;;;;;;;;4943561;29;20556;-82
2022/03/02 03:56:07;;;;;;;12.35;5.07;;;;;;;;;;4942389;29;20078;-83
2022/03/02 03:58:35;;;;;;;14.43;5.18;;;;;;;;;;4944484;29;20558;-83
2022/03/02 04:01:07;;;;;;;12.07;6.10;;;;;;;;;;4959924;29;20460;-83
2022/03/02 04:03:36;;;;;;;13.57;5.80;;;;;;;;;;4948522;29;20131;-83
2022/03/02 04:06:07;;;;;;;11.43;5.50;;;;;;;;;;4943438;29;20164;-83
2022/03/02 04:08:36;;;;;;;10.50;5.05;;;;;;;;;;4944508;29;20516;-83
2022/03/02 04:11:08;;;;;;;14.57;5.95;;;;;;;;;;4940260;29;20107;-84
2022/03/02 04:13:37;;;;;;;9.57;4.53;;;;;;;;;;4919077;29;20045;-84
2022/03/02 04:16:06;;;;;;;10.75;5.35;;;;;;;;;;4933559;29;20143;-83
2022/03/02 04:18:34;;;;;;;13.48;6.13;;;;;;;;;;4937758;29;20056;-82
2022/03/02 04:21:05;;;;;;;10.93;5.43;;;;;;;;;;4944981;29;20060;-82
2022/03/02 04:23:34;;;;;;;14.60;6.97;;;;;;;;;;4924820;29;20056;-82
2022/03/02 04:26:05;;;;;;;13.13;5.90;;;;;;;;;;4940914;29;20470;-83
2022/03/02 04:28:35;;;;;;;9.75;5.03;;;;;;;;;;4942840;29;20047;-84
2022/03/02 04:31:06;;;;;;;10.02;5.47;;;;;;;;;;4945838;29;20060;-84
2022/03/02 04:33:35;;;;;;;12.27;5.35;;;;;;;;;;4944075;29;20056;-83
2022/03/02 04:36:07;;;;;;;12.73;5.70;;;;;;;;;;4944720;29;20067;-83
2022/03/02 04:38:35;;;;;;;9.68;5.28;;;;;;;;;;4943657;29;20091;-83
2022/03/02 04:41:06;;;;;;;9.25;4.45;;;;;;;;;;4942272;29;20134;-82
2022/03/02 04:43:36;;;;;;;12.85;5.10;;;;;;;;;;4940560;29;20106;-82
2022/03/02 04:46:05;;;;;;;11.05;4.93;;;;;;;;;;4941914;29;20055;-82
2022/03/02 04:48:34;;;;;;;9.75;5.10;;;;;;;;;;4943289;29;20048;-82
2022/03/02 04:51:06;;;;;;;13.05;4.78;;;;;;;;;;4940517;29;20488;-82
2022/03/02 04:53:35;;;;;;;10.02;4.95;;;;;;;;;;4942910;29;20129;-84
2022/03/02 04:56:06;;;;;;;11.27;5.30;;;;;;;;;;4940892;29;20082;-82
2022/03/02 04:58:34;;;;;;;12.68;5.63;;;;;;;;;;4943177;29;20094;-83
2022/03/02 05:01:06;;;;;;;9.00;5.03;;;;;;;;;;4941832;29;20047;-82
2022/03/02 05:03:35;;;;;;;13.32;5.60;;;;;;;;;;4927358;29;20051;-84
2022/03/02 05:06:06;;;;;;;19.08;6.22;;;;;;;;;;4942656;29;20075;-83
2022/03/02 05:08:34;;;;;;;11.45;5.47;;;;;;;;;;4943299;29;20396;-83
2022/03/02 05:11:05;;;;;;;12.05;4.93;;;;;;;;;;4937342;29;20083;-83
2022/03/02 05:13:36;;;;;;;10.60;5.63;;;;;;;;;;4922887;29;20530;-83
2022/03/02 05:16:08;;;;;;;11.60;4.97;;;;;;;;;;4933900;29;20044;-84
2022/03/02 05:18:41;;;;;;;9.82;5.00;;;;;;;;;;4941155;29;20051;-83
2022/03/02 05:21:10;;;;;;;9.50;4.82;;;;;;;;;;4962114;29;20051;-82
2022/03/02 05:23:38;;;;;;;15.57;5.20;;;;;;;;;;4961689;29;20085;-82
2022/03/02 05:26:06;;;;;;;9.93;5.00;;;;;;;;;;4962106;28;20051;-82
2022/03/02 05:28:35;;;;;;;12.20;5.53;;;;;;;;;;4961162;28;20039;-83
2022/03/02 05:31:06;;;;;;;11.20;4.43;;;;;;;;;;4962151;28;20065;-83
2022/03/02 05:33:36;;;;;;;10.95;4.82;;;;;;;;;;4943858;29;20106;-84
2022/03/02 05:36:07;;;;;;;16.23;5.53;;;;;;;;;;4963116;29;20094;-83
2022/03/02 05:38:35;;;;;;;9.05;5.00;;;;;;;;;;4961023;29;20385;-82
2022/03/02 05:41:07;;;;;;;14.82;5.90;;;;;;;;;;4943110;28;20188;-83
2022/03/02 05:43:35;;;;;;;13.80;5.13;;;;;;;;;;4954536;29;20126;-82
2022/03/02 05:46:06;;;;;;;12.80;5.60;;;;;;;;;;4946452;28;20044;-82
2022/03/02 05:48:36;;;;;;;18.30;6.22;;;;;;;;;;4954864;29;20135;-82
2022/03/02 05:51:07;;;;;;;13.50;6.50;;;;;;;;;;4954391;29;20078;-83
2022/03/02 05:53:35;;;;;;;13.10;5.20;;;;;;;;;;4955334;29;20047;-83
2022/03/02 05:56:07;;;;;;;12.65;5.13;;;;;;;;;;4955323;29;20468;-84
2022/03/02 05:58:35;;;;;;;14.25;5.40;;;;;;;;;;4955608;29;20047;-83
2022/03/02 06:01:07;;;;;;;10.35;5.10;;;;;;;;;;4956990;28;20055;-82
2022/03/02 06:03:38;;;;;;;9.07;5.55;;;;;;;;;;4962968;28;20047;-84
2022/03/02 06:06:27;;;;;;;16.30;5.20;;;;;;;;;;4974427;28;20176;-83
2022/03/02 06:08:55;;;;;;;11.52;5.68;;;;;;;;;;4973178;28;20142;-83
2022/03/02 06:11:24;;;;;;;12.80;5.55;;;;;;;;;;4961299;28;20047;-83
2022/03/02 06:13:52;;;;;;;9.07;4.90;;;;;;;;;;4968464;28;20046;-84
2022/03/02 06:16:21;;;;;;;10.70;5.82;;;;;;;;;;4954353;28;20551;-82
2022/03/02 06:18:51;;;;;;;13.23;4.93;;;;;;;;;;4965968;28;20273;-82
2022/03/02 06:21:20;;;;;;;11.40;5.75;;;;;;;;;;4959342;28;20057;-82
2022/03/02 06:23:50;;;;;;;11.02;5.22;;;;;;;;;;4973422;28;20049;-82
2022/03/02 06:26:22;;;;;;;11.38;5.22;;;;;;;;;;4964992;28;20083;-83
2022/03/02 06:28:50;;;;;;;11.43;5.47;;;;;;;;;;4945600;28;20047;-83
2022/03/02 06:31:19;;;;;;;12.95;5.00;;;;;;;;;;4968570;28;20085;-84
2022/03/02 06:33:48;;;;;;;12.10;5.95;;;;;;;;;;4962952;28;20047;-83
2022/03/02 06:36:20;;;;;;;11.75;5.07;;;;;;;;;;4950769;28;20130;-83
2022/03/02 06:38:48;;;;;;;14.52;5.88;;;;;;;;;;4973650;28;20058;-83
2022/03/02 06:41:24;;;;;;;11.30;4.93;;;;;;;;;;4958318;28;20078;-84
2022/03/02 06:43:55;;;;;;;12.65;5.28;;;;;;;;;;4952834;23;20048;-67
2022/03/02 06:46:31;;;;;;;13.38;5.93;;;;;;;;;;4895529;29;20048;-67
2022/03/02 06:49:03;;;;;;;14.77;5.88;;;;;;;;;;4905641;29;20052;-67
2022/03/02 06:51:41;;;;;;;8.90;4.70;;;;;;;;;;4911978;29;20127;-65
2022/03/02 06:54:11;;;;;;;10.45;5.45;;;;;;;;;;4900185;29;20488;-65
2022/03/02 06:56:45;;;;;;;12.40;5.05;;;;;;;;;;4906314;29;20075;-68
2022/03/02 06:59:15;;;;;;;9.80;4.40;;;;;;;;;;4890810;29;20074;-65
2022/03/02 07:01:44;;;;;;;10.00;5.55;;;;;;;;;;4900140;29;20383;-66
2022/03/02 07:04:14;;;;;;;13.10;5.68;;;;;;;;;;4914749;29;20462;-66
2022/03/02 07:06:44;;;;;;;10.52;5.10;;;;;;;;;;4913165;29;20135;-66
2022/03/02 07:09:13;;;;;;;13.95;5.72;;;;;;;;;;4905988;29;20089;-67
2022/03/02 07:11:42;;;;;;;8.10;4.78;;;;;;;;;;4899220;29;20048;-67
2022/03/02 07:14:15;;;;;;;20.90;6.15;;;;;;;;;;4902536;29;20098;-66
2022/03/02 07:16:44;;;;;;;10.55;5.25;;;;;;;;;;4909208;29;20044;-67
2022/03/02 07:19:13;;;;;;;15.52;5.22;;;;;;;;;;4904790;29;20048;-67
2022/03/02 07:21:46;;;;;;;10.80;5.28;;;;;;;;;;4914016;29;20041;-67
2022/03/02 07:24:17;;;;;;;12.02;5.25;;;;;;;;;;4904425;29;20080;-67
2022/03/02 07:26:46;;;;;;;11.38;5.70;;;;;;;;;;4893702;29;20105;-66
2022/03/02 07:29:15;;;;;;;12.77;5.75;;;;;;;;;;4893766;29;20088;-67
2022/03/02 07:31:45;;;;;;;12.52;6.60;;;;;;;;;;4899273;29;20072;-66
2022/03/02 07:34:19;;;;;;;11.23;5.88;;;;;;;;;;4889763;29;20367;-67
2022/03/02 07:36:49;;;;;;;12.77;5.82;;;;;;;;;;4898038;29;20456;-67
2022/03/02 07:39:17;;;;;;;13.13;6.28;;;;;;;;;;4890607;29;20048;-66
2022/03/02 07:41:46;;;;;;;16.73;7.13;;;;;;;;;;4887328;29;20048;-66
2022/03/02 07:44:16;;;;;;;14.40;6.22;;;;;;;;;;4894121;29;20100;-66
2022/03/02 07:46:45;;;;;;;15.30;6.07;;;;;;;;;;4893672;29;20059;-66
2022/03/02 07:49:15;;;;;;;12.63;6.75;;;;;;;;;;4891901;29;20128;-67
2022/03/02 07:51:45;;;;;;;20.60;6.70;;;;;;;;;;4900761;29;20135;-66
2022/03/02 07:54:16;;;;;;;19.70;6.20;;;;;;;;;;4894054;29;20064;-66
2022/03/02 07:56:46;;;;;;;19.92;6.70;;;;;;;;;;4898076;29;20048;-66
2022/03/02 07:59:17;;;;;;;19.38;6.50;;;;;;;;;;4901556;29;20072;-66
2022/03/02 08:01:46;;;;;;;19.67;6.57;;;;;;;;;;4895358;29;20044;-67
2022/03/02 08:04:15;;;;;;;22.33;5.90;;;;;;;;;;4894243;29;20520;-67
2022/03/02 08:06:44;;;;;;;16.40;6.57;;;;;;;;;;4890218;29;20048;-67
2022/03/02 08:09:13;;;;;;;18.95;6.32;;;;;;;;;;4891744;29;20101;-67
2022/03/02 08:11:43;;;;;;;19.25;5.90;;;;;;;;;;4908710;29;20052;-67
2022/03/02 08:14:11;;;;;;;20.13;5.97;;;;;;;;;;4897200;29;20111;-67
2022/03/02 08:16:41;;;;;;;14.43;7.25;;;;;;;;;;4902683;29;20052;-67
2022/03/02 08:19:11;;;;;;;11.32;5.78;;;;;;;;;;4893932;29;20048;-67
2022/03/02 08:21:42;;;;;;;16.33;5.95;;;;;;;;;;4898672;29;20397;-67
2022/03/02 08:24:11;;;;;;;14.00;6.22;;;;;;;;;;4905021;29;20055;-67
2022/03/02 08:26:40;;;;;;;8.15;4.18;;;;;;;;;;4915102;29;20056;-67
2022/03/02 08:29:11;;;;;;;18.75;5.97;;;;;;;;;;4898508;29;20466;-67
2022/03/02 08:31:41;;;;;;;20.40;6.00;;;;;;;;;;4897929;29;20111;-67
2022/03/02 08:34:09;;;;;;;10.55;6.07;;;;;;;;;;4902315;29;20128;-68
2022/03/02 08:36:38;;;;;;;13.95;5.60;;;;;;;;;;4889013;29;20051;-67
2022/03/02 08:39:08;;;;;;;14.38;5.88;;;;;;;;;;4900863;29;20056;-67
2022/03/02 08:41:39;;;;;;;12.75;5.88;;;;;;;;;;4894290;29;20065;-67
2022/03/02 08:44:08;;;;;;;16.00;5.88;;;;;;;;;;4893057;29;20053;-67
2022/03/02 08:46:38;;;;;;;10.40;4.90;;;;;;;;;;4901888;29;20351;-67
2022/03/02 08:49:07;;;;;;;14.10;5.57;;;;;;;;;;4895699;29;20484;-67
2022/03/02 08:51:39;;;;;;;15.23;5.82;;;;;;;;;;4900931;29;20580;-67
2022/03/02 08:54:08;;;;;;;10.10;5.05;;;;;;;;;;4897976;29;20056;-67
2022/03/02 08:56:39;;;;;;;11.38;4.28;;;;;;;;;;4894424;29;20458;-67
2022/03/02 08:59:07;;;;;;;11.90;4.97;;;;;;;;;;4892564;29;20053;-68
2022/03/02 09:01:40;;;;;;;12.18;5.18;;;;;;;;;;4895113;29;20060;-67
2022/03/02 09:04:14;;;;;;;11.48;5.35;;;;;;;;;;4897167;29;20105;-67
2022/03/02 09:06:43;;;;;;;11.25;4.85;;;;;;;;;;4898172;29;20060;-67
2022/03/02 09:09:11;;;;;;;11.05;5.32;;;;;;;;;;4903254;29;20049;-68
2022/03/02 09:11:42;;;;;;;11.10;4.80;;;;;;;;;;4912622;29;20511;-68
2022/03/02 09:14:11;;;;;;;13.95;5.40;;;;;;;;;;4893092;29;20466;-67
2022/03/02 09:16:41;;;;;;;10.88;4.80;;;;;;;;;;4891854;29;20044;-67
2022/03/02 09:19:10;;;;;;;10.98;5.60;;;;;;;;;;4894126;29;20048;-66
2022/03/02 09:21:39;;;;;;;13.38;5.30;;;;;;;;;;4892966;29;20063;-66
2022/03/02 09:24:10;;;;;;;11.82;4.50;;;;;;;;;;4897200;29;20064;-66
2022/03/02 09:26:39;;;;;;;11.75;4.60;;;;;;;;;;4897312;29;20136;-66
2022/03/02 09:29:10;;;;;;;12.40;5.60;;;;;;;;;;4906926;29;20565;-66
2022/03/02 09:31:41;;;;;;;10.73;4.72;;;;;;;;;;4901489;29;20044;-66
2022/03/02 09:34:14;;;;;;;14.57;4.93;;;;;;;;;;4895111;29;20139;-67
2022/03/02 09:36:44;;;;;;;11.25;5.63;;;;;;;;;;4900654;29;20136;-67
2022/03/02 09:39:13;;;;;;;10.38;4.50;;;;;;;;;;4893933;29;20552;-67
2022/03/02 09:41:48;;;;;;;6.93;3.65;;;;;;;;;;4892386;29;20060;-67
2022/03/02 09:44:19;;;;;;;11.52;4.72;;;;;;;;;;4889494;29;20064;-67
2022/03/02 09:46:51;;;;;;;10.65;4.85;;;;;;;;;;4894228;29;20060;-67
2022/03/02 09:49:23;;;;;;;11.07;5.13;;;;;;;;;;4896203;29;20045;-67
2022/03/02 09:51:53;;;;;;;12.10;4.70;;;;;;;;;;4909334;29;20134;-67
2022/03/02 09:54:23;;;;;;;6.97;3.97;;;;;;;;;;4889103;29;20058;-67
2022/03/02 09:56:53;;;;;;;8.05;4.50;;;;;;;;;;4886933;29;20111;-67
2022/03/02 09:59:25;;;;;;;8.48;5.03;;;;;;;;;;4898802;29;20060;-67
2022/03/02 10:01:56;;;;;;;12.82;4.65;;;;;;;;;;4899676;29;20056;-67
2022/03/02 10:04:30;;;;;;;8.85;5.68;;;;;;;;;;4892312;29;20052;-67
2022/03/02 10:07:26;;;;;;;7.93;4.45;;;;;;;;;;4890125;29;20052;-68
2022/03/02 10:09:51;;;;;;;8.88;4.63;;;;;;;;;;4894207;29;20044;-68
2022/03/02 10:12:21;;;;;;;11.23;4.30;;;;;;;;;;4891516;29;20053;-68
2022/03/02 10:14:50;;;;;;;11.57;5.32;;;;;;;;;;4898612;29;20055;-68
2022/03/02 10:17:21;;;;;;;8.00;4.30;;;;;;;;;;4890288;29;20083;-68
2022/03/02 10:19:54;;;;;;;9.27;4.40;;;;;;;;;;4890598;29;20563;-68
2022/03/02 10:22:35;;;;;;;9.63;5.10;;;;;;;;;;4908376;29;20138;-68
2022/03/02 10:25:07;;;;;;;8.63;4.47;;;;;;;;;;4911839;29;20056;-68
2022/03/02 10:27:37;;;;;;;10.57;5.03;;;;;;;;;;4897060;29;20064;-68
2022/03/02 10:30:07;;;;;;;10.50;4.90;;;;;;;;;;4896915;29;20056;-68
2022/03/02 10:32:37;;;;;;;9.40;4.18;;;;;;;;;;4889696;29;20068;-68
2022/03/02 10:35:08;;;;;;;8.07;4.63;;;;;;;;;;4893297;29;20481;-68
2022/03/02 10:37:38;;;;;;;10.18;4.63;;;;;;;;;;4897698;29;20056;-68
2022/03/02 10:40:11;;;;;;;10.57;4.88;;;;;;;;;;4892883;29;20071;-68
2022/03/02 10:42:42;;;;;;;8.70;4.60;;;;;;;;;;4891479;29;20537;-68
2022/03/02 10:45:15;;;;;;;15.02;5.03;;;;;;;;;;4891799;29;20575;-67
2022/03/02 10:47:48;;;;;;;8.15;4.38;;;;;;;;;;4888124;29;20044;-68
2022/03/02 10:50:19;;;;;;;13.20;5.18;;;;;;;;;;4890579;29;20056;-68
2022/03/02 10:52:48;;;;;;;14.40;4.68;;;;;;;;;;4891362;29;20076;-68
2022/03/02 10:55:17;;;;;;;9.65;5.03;;;;;;;;;;4903759;29;20437;-68
2022/03/02 10:57:47;;;;;;;10.80;5.28;;;;;;;;;;4893961;29;20059;-68
2022/03/02 11:00:17;;;;;;;12.57;5.13;;;;;;;;;;4885408;29;20044;-68
2022/03/02 11:02:47;;;;;;;10.27;5.47;;;;;;;;;;4906021;29;20083;-68
2022/03/02 11:05:18;;;;;;;11.43;5.55;;;;;;;;;;4896735;29;20536;-67
2022/03/02 11:07:48;;;;;;;15.05;5.68;;;;;;;;;;4902839;29;20059;-67
2022/03/02 11:10:18;;;;;;;11.85;5.32;;;;;;;;;;4890022;29;20052;-67
2022/03/02 11:12:48;;;;;;;10.00;5.05;;;;;;;;;;4890803;29;20470;-67
2022/03/02 11:15:17;;;;;;;9.20;5.20;;;;;;;;;;4897924;29;20063;-67
2022/03/02 11:17:53;;;;;;;12.77;5.93;;;;;;;;;;4899996;29;20583;-67
2022/03/02 11:20:25;;;;;;;8.75;4.55;;;;;;;;;;4902345;29;20427;-67
2022/03/02 11:22:55;;;;;;;11.98;5.10;;;;;;;;;;4903421;29;20048;-67
2022/03/02 11:25:39;;;;;;;11.48;5.60;;;;;;;;;;4889826;29;20155;-68
2022/03/02 11:28:08;;;;;;;13.70;6.00;;;;;;;;;;4892410;29;20087;-68
2022/03/02 11:30:38;;;;;;;11.77;5.18;;;;;;;;;;4908956;29;20127;-68
2022/03/02 11:33:07;;;;;;;8.77;5.53;;;;;;;;;;4903350;29;20117;-68
2022/03/02 11:35:38;;;;;;;10.75;5.75;;;;;;;;;;4892100;29;20462;-68
2022/03/02 11:38:07;;;;;;;10.05;5.47;;;;;;;;;;4903196;29;20056;-68
2022/03/02 11:40:40;;;;;;;11.75;5.80;;;;;;;;;;4886760;29;20052;-68
2022/03/02 11:43:15;;;;;;;10.52;4.75;;;;;;;;;;4881067;29;20053;-68
2022/03/02 11:45:56;;;;;;;11.68;4.55;;;;;;;;;;4892589;29;20044;-68
2022/03/02 11:48:26;;;;;;;12.70;5.25;;;;;;;;;;4900793;29;20412;-68
2022/03/02 11:51:09;;;;;;;10.73;4.88;;;;;;;;;;4890973;29;20049;-68
2022/03/02 11:53:39;;;;;;;11.40;5.00;;;;;;;;;;4889640;29;20050;-68
2022/03/02 11:56:08;;;;;;;11.52;5.63;;;;;;;;;;4889941;29;20105;-68
2022/03/02 11:59:10;;;;;;;10.98;4.85;;;;;;;;;;4890677;29;20045;-68
2022/03/02 12:01:46;;;;;;;14.75;6.40;;;;;;;;;;4889264;29;20062;-68
2022/03/02 12:04:33;;;;;;;10.45;5.10;;;;;;;;;;4894205;29;20497;-68
2022/03/02 12:07:05;;;;;;;10.48;5.03;;;;;;;;;;4894065;29;20135;-68
2022/03/02 12:09:36;;;;;;;15.73;5.85;;;;;;;;;;4898084;29;20052;-68
2022/03/02 12:12:10;;;;;;;14.35;4.95;;;;;;;;;;4906258;29;20052;-68
2022/03/02 12:14:41;;;;;;;8.70;4.50;;;;;;;;;;4917332;29;20052;-68
2022/03/02 12:17:14;;;;;;;8.50;4.88;;;;;;;;;;4901794;29;20413;-68
2022/03/02 12:19:45;;;;;;;12.93;5.15;;;;;;;;;;4903749;29;20083;-68
2022/03/02 12:22:17;;;;;;;13.10;4.30;;;;;;;;;;4910309;29;20061;-68
2022/03/02 12:24:46;;;;;;;8.43;4.93;;;;;;;;;;4905331;29;20071;-69
2022/03/02 12:27:15;;;;;;;10.23;4.38;;;;;;;;;;4895294;29;20132;-68
2022/03/02 12:29:45;;;;;;;11.73;4.63;;;;;;;;;;4886326;29;20056;-69
2022/03/02 12:32:15;;;;;;;7.63;4.28;;;;;;;;;;4904301;29;20717;-69
2022/03/02 12:34:45;;;;;;;8.80;4.90;;;;;;;;;;4889222;29;20056;-68
2022/03/02 12:37:16;;;;;;;12.60;4.95;;;;;;;;;;4910733;29;20060;-69
2022/03/02 12:39:50;;;;;;;9.80;4.60;;;;;;;;;;4894945;29;20287;-68
2022/03/02 12:42:20;;;;;;;11.82;5.15;;;;;;;;;;4896976;29;20097;-69
2022/03/02 12:44:49;;;;;;;8.77;4.50;;;;;;;;;;4901609;29;20068;-69
2022/03/02 12:47:19;;;;;;;9.13;4.50;;;;;;;;;;4889886;29;20049;-69
2022/03/02 12:49:50;;;;;;;10.77;4.45;;;;;;;;;;4892880;29;20051;-68
2022/03/02 12:52:20;;;;;;;8.32;4.05;;;;;;;;;;4893022;29;20060;-68
2022/03/02 12:54:52;;;;;;;7.93;4.68;;;;;;;;;;4900366;29;20501;-68
2022/03/02 12:57:21;;;;;;;21.10;5.28;;;;;;;;;;4908223;29;20052;-68
2022/03/02 12:59:51;;;;;;;11.30;5.00;;;;;;;;;;4893787;29;20077;-68
2022/03/02 13:02:21;;;;;;;12.20;4.97;;;;;;;;;;4893052;29;20088;-68
2022/03/02 13:04:59;;;;;;;9.35;4.75;;;;;;;;;;4911499;29;20052;-68
2022/03/02 13:07:36;;;;;;;12.65;5.72;;;;;;;;;;4898888;29;20417;-68
2022/03/02 13:10:06;;;;;;;11.68;5.00;;;;;;;;;;4900543;29;20064;-68
2022/03/02 13:12:36;;;;;;;13.18;5.75;;;;;;;;;;4897075;29;20968;-68
2022/03/02 13:15:10;;;;;;;11.00;5.22;;;;;;;;;;4905978;29;20060;-68
2022/03/02 13:17:39;;;;;;;10.63;5.50;;;;;;;;;;4899093;29;20512;-68
2022/03/02 13:20:18;;;;;;;9.23;5.90;;;;;;;;;;4900529;29;20049;-68
2022/03/02 13:22:48;;;;;;;13.02;6.10;;;;;;;;;;4911334;29;20473;-68
2022/03/02 13:25:17;;;;;;;12.88;6.15;;;;;;;;;;4900899;29;20078;-68
2022/03/02 13:28:00;;;;;;;13.63;6.30;;;;;;;;;;4909925;29;20056;-68
2022/03/02 13:30:29;;;;;;;13.93;5.72;;;;;;;;;;4894540;29;20045;-68
2022/03/02 13:33:02;;;;;;;14.52;6.22;;;;;;;;;;4891426;29;20516;-68
2022/03/02 13:35:58;;;;;;;14.27;6.60;;;;;;;;;;4897323;29;20494;-68
2022/03/02 13:38:41;;;;;;;10.55;5.63;;;;;;;;;;4893713;29;20056;-68
2022/03/02 13:41:09;;;;;;;10.60;5.57;;;;;;;;;;4904798;29;20048;-68
2022/03/02 13:43:39;;;;;;;11.23;5.88;;;;;;;;;;4893161;29;20469;-68
2022/03/02 13:46:22;;;;;;;13.20;5.95;;;;;;;;;;4907638;29;20048;-68
2022/03/02 13:48:55;;;;;;;15.07;5.70;;;;;;;;;;4898109;29;20041;-68
2022/03/02 13:51:24;;;;;;;15.38;6.05;;;;;;;;;;4893313;29;20048;-68
2022/03/02 13:54:05;;;;;;;13.75;6.50;;;;;;;;;;4902398;29;20135;-68
2022/03/02 13:56:41;;;;;;;15.10;6.43;;;;;;;;;;4893366;29;20096;-68
2022/03/02 13:59:17;;;;;;;14.35;6.30;;;;;;;;;;4896611;29;20489;-69
2022/03/02 14:01:52;;;;;;;12.07;5.93;;;;;;;;;;4893411;29;20060;-68
2022/03/02 14:04:21;;;;;;;15.27;6.30;;;;;;;;;;4893675;29;20056;-68
2022/03/02 14:06:55;;;;;;;13.73;6.78;;;;;;;;;;4892914;29;20510;-68
2022/03/02 14:09:26;;;;;;;14.23;6.57;;;;;;;;;;4892845;29;20556;-68
2022/03/02 14:11:56;;;;;;;16.08;6.70;;;;;;;;;;4898379;29;20059;-68
2022/03/02 14:14:26;;;;;;;10.98;6.57;;;;;;;;;;4893196;29;20060;-68
2022/03/02 14:16:59;;;;;;;12.15;5.57;;;;;;;;;;4888680;29;20481;-68
2022/03/02 14:19:29;;;;;;;11.32;6.22;;;;;;;;;;4908597;29;20072;-68
2022/03/02 14:21:59;;;;;;;15.00;7.63;;;;;;;;;;4911012;29;20048;-68
2022/03/02 14:24:32;;;;;;;12.55;6.60;;;;;;;;;;4901953;29;20057;-68
2022/03/02 14:27:07;;;;;;;12.25;6.47;;;;;;;;;;4899257;29;20056;-68
2022/03/02 14:29:37;;;;;;;13.40;7.20;;;;;;;;;;4891835;29;20053;-68
2022/03/02 14:32:07;;;;;;;16.77;6.53;;;;;;;;;;4888844;29;20068;-68
2022/03/02 14:34:47;;;;;;;14.18;6.70;;;;;;;;;;4890487;29;20109;-68
2022/03/02 14:37:17;;;;;;;15.00;7.15;;;;;;;;;;4911400;29;20543;-68
2022/03/02 14:40:10;;;;;;;20.08;6.95;;;;;;;;;;4909835;29;20071;-68
2022/03/02 14:42:40;;;;;;;12.90;6.50;;;;;;;;;;4884999;29;20076;-69
2022/03/02 14:45:18;;;;;;;15.25;7.10;;;;;;;;;;4893052;29;20057;-68
2022/03/02 14:47:49;;;;;;;15.85;7.65;;;;;;;;;;4877149;29;20100;-68
2022/03/02 14:50:20;;;;;;;16.58;7.70;;;;;;;;;;4895904;29;20048;-68
2022/03/02 14:52:56;;;;;;;13.32;6.97;;;;;;;;;;4890257;29;20052;-68